Sherborn, Massachusetts
Current Conditions -  °F | °C
As of 11:53 AM on Wednesday 22 Oct 2014 (Local Time) from KOWD Reporting Station
Light Rain Light Rain  
Wind Chill: 52°   Ceiling: 800
Heat Index: 52°   Visibility: 2mi
Dew Point: 51°   Wind: 12mph
Humidity: 97%   Direction: 10°N
Pressure: 29.97"   Gusts: 21mph
Location:  42.24°N, 71.37°W
Report Text: KOWD 221553Z 01010G18KT 350V050 2SM -RA BR OVC008 11/11 A2997 RMK AO2 CIG 006V012 SLP148 P0001 T01110106
Loading
Personal Weather Stations






























Interactive Weather Map
Tropical Storm Tracking
New forecast layout! Learn more

10-Day Weather Forecast

Advertisements
Track Severe Weather on mobile